Flight Track Log - Related Links

Times and Time Zones

All times are in EST time to prevent confusion due to time zone crossing. See the N465TP flight status page for this flight to view local times or setup timezone preferences in your user account.

Time Position Orientation Groundspeed Altitude Reporting Facility
EST Latitude Longitude Course Direction KTS MPH feet Rate Location/Type
Sun 07:34:04 PM 40.7711 -111.9631 277° West 128 147 4,800  Level Salt Lake Center
Sun 07:35:05 PM 40.7753 -112.0069 277° West 158 182 6,400 1,722 Climbing Salt Lake Center
Sun 07:35:59 PM 40.7847 -112.0547 285° West 139 160 8,100 1,690 Climbing Salt Lake Center
Sun 07:36:16 PM 40.7897 -112.0578 335° Northwest 142 163 8,400 1,574 Climbing Salt Lake Center
Sun 07:37:00 PM 40.8169 -112.0978 312° West 162 186 9,700 1,452 Climbing Salt Lake Center
Sun 07:37:18 PM 40.8183 -112.1003 306° West 156 180 9,900 1,475 Climbing Salt Lake Center
Sun 07:38:01 PM 40.8458 -112.1361 315° West 169 194 11,200 1,475 Climbing Salt Lake Center
Sun 07:38:19 PM 40.8506 -112.1414 320° Northwest 162 186 11,400 1,367 Climbing Salt Lake Center
Sun 07:39:20 PM 40.9075 -112.1536 351° North 179 206 13,000 1,180 Climbing Salt Lake Center
Sun 07:40:21 PM 40.9525 -112.1081 37° Northeast 204 235 13,800 488 Climbing Salt Lake Center
Sun 07:41:23 PM 41.0069 -112.0581 35° Northeast 238 274 14,000 98 Climbing Salt Lake Center
Sun 07:42:24 PM 41.0619 -112.0064 35° Northeast 239 275 14,000 98 Level Salt Lake Center
Sun 07:43:25 PM 41.1181 -111.9544 35° Northeast 243 280 14,200 934 Climbing Salt Lake Center
Sun 07:44:26 PM 41.1683 -111.9125 32° Northeast 209 241 15,900 1,525 Climbing Salt Lake Center
Sun 07:45:27 PM 41.2142 -111.8758 31° Northeast 193 222 17,300 1,415 Climbing Salt Lake Center
Sun 07:46:29 PM 41.2625 -111.8369 31° Northeast 200 230 18,800 1,415 Climbing Salt Lake Center
Sun 07:47:30 PM 41.3128 -111.7967 31° Northeast 212 244 20,200 1,328 Climbing Salt Lake Center
Sun 07:48:31 PM 41.3619 -111.7558 32° Northeast 210 242 21,500 1,279 Climbing Salt Lake Center
Sun 07:49:32 PM 41.4144 -111.7136 31° Northeast 220 253 22,800 1,328 Climbing Salt Lake Center
Sun 07:50:33 PM 41.4681 -111.6697 32° Northeast 224 258 24,200 1,082 Climbing Salt Lake Center
Sun 07:51:34 PM 41.5228 -111.6250 31° Northeast 230 265 25,000 390 Climbing Salt Lake Center
Sun 07:52:36 PM 41.5864 -111.5725 32° Northeast 267 307 25,000  Level Salt Lake Center
Sun 07:53:37 PM 41.6667 -111.5050 32° Northeast 282 325 25,000  Level Salt Lake Center
Sun 07:54:38 PM 41.7358 -111.4511 30° Northeast 287 330 25,000  Level Salt Lake Center
Sun 07:55:39 PM 41.8044 -111.3944 32° Northeast 288 331 25,000  Level Salt Lake Center
Sun 07:56:40 PM 41.8711 -111.3392 32° Northeast 284 327 25,000  Level Salt Lake Center
Sun 07:57:42 PM 41.9389 -111.2817 32° Northeast 288 331 25,000  Level Salt Lake Center
Sun 07:58:43 PM 42.0067 -111.2253 32° Northeast 288 331 25,000  Level Salt Lake Center
Sun 07:59:45 PM 42.0753 -111.1686 32° Northeast 288 331 25,000  Level Salt Lake Center
Sun 08:00:46 PM 42.1428 -111.1117 32° Northeast 287 330 25,000  Level Salt Lake Center
Sun 08:01:47 PM 42.2103 -111.0547 32° Northeast 286 329 25,000  Level Salt Lake Center
Sun 08:02:49 PM 42.2903 -110.9869 32° Northeast 284 327 25,000  Level Salt Lake Center
Sun 08:03:50 PM 42.3572 -110.9308 32° Northeast 283 326 25,000  Level Salt Lake Center
Sun 08:04:51 PM 42.4211 -110.8769 32° Northeast 283 326 25,000  Level Salt Lake Center
Sun 08:05:52 PM 42.4847 -110.8244 31° Northeast 280 322 25,000  Level Salt Lake Center
Sun 08:06:54 PM 42.5586 -110.7614 32° Northeast 280 322 25,000  Level Salt Lake Center
Sun 08:07:55 PM 42.6228 -110.7058 32° Northeast 284 327 25,000  Level Salt Lake Center
Sun 08:08:56 PM 42.6972 -110.6425 32° Northeast 283 326 25,000  Level Salt Lake Center
Sun 08:09:57 PM 42.7658 -110.5819 33° Northeast 287 330 25,000  Level Salt Lake Center
Sun 08:10:58 PM 42.8297 -110.5306 31° Northeast 282 325 25,000  Level Salt Lake Center
Sun 08:12:00 PM 42.8936 -110.4736 33° Northeast 285 328 25,000  Level Salt Lake Center
Sun 08:13:01 PM 42.9675 -110.4094 32° Northeast 284 327 25,000  Level Salt Lake Center
Sun 08:14:02 PM 43.0317 -110.3550 32° Northeast 284 327 25,000  Level Salt Lake Center
Sun 08:15:03 PM 43.0942 -110.3000 33° Northeast 282 325 25,000  Level Salt Lake Center
Sun 08:16:04 PM 43.1675 -110.2372 32° Northeast 279 321 25,000  Level Salt Lake Center
Sun 08:17:06 PM 43.2308 -110.1814 33° Northeast 282 325 25,000  Level Salt Lake Center
Sun 08:18:07 PM 43.3011 -110.1181 33° Northeast 286 329 25,000  Level Salt Lake Center
Sun 08:19:08 PM 43.3639 -110.0636 32° Northeast 281 323 25,000  Level Salt Lake Center
Sun 08:20:09 PM 43.4378 -109.9983 33° Northeast 281 323 25,000  Level Salt Lake Center
Sun 08:21:11 PM 43.5006 -109.9422 33° Northeast 281 323 25,000  Level Salt Lake Center
Sun 08:22:12 PM 43.5664 -109.8833 33° Northeast 279 321 25,000  Level Salt Lake Center
Sun 08:23:13 PM 43.6386 -109.8217 32° Northeast 276 318 25,000  Level Salt Lake Center
Sun 08:24:14 PM 43.7006 -109.7653 33° Northeast 278 320 25,000  Level Salt Lake Center
Sun 08:25:15 PM 43.7633 -109.7094 33° Northeast 279 321 25,000  Level Salt Lake Center
Sun 08:26:17 PM 43.8367 -109.6428 33° Northeast 282 325 25,000  Level Salt Lake Center
Sun 08:27:18 PM 43.8989 -109.5878 32° Northeast 279 321 25,000  Level Salt Lake Center
Sun 08:28:19 PM 43.9722 -109.5219 33° Northeast 281 323 25,000 -49 Level Salt Lake Center
Sun 08:29:20 PM 44.0389 -109.4622 33° Northeast 282 325 24,900 -1,073 Descending Salt Lake Center
Sun 08:30:22 PM 44.1028 -109.4044 33° Northeast 277 319 22,800 -2,244 Descending Salt Lake Center
Sun 08:31:23 PM 44.1669 -109.3472 33° Northeast 274 315 20,300 -2,459 Descending Salt Lake Center
Sun 08:32:24 PM 44.2286 -109.2908 33° Northeast 269 310 17,800 -2,410 Descending Salt Lake Center
Sun 08:33:25 PM 44.2847 -109.2403 33° Northeast 250 288 15,400 -2,361 Descending Salt Lake Center

Login

Don't have an account? Register now (free) for customized features, flight alerts, and more!